TRA65J EHRD-LPPR
Flight info
| Callsign | TRA65J |
|---|---|
| Flight time | N/A |
| Altitude | 36000 |
| Route | SOMEL2A ABNED L980 LOGAN DCT SAM/N0440F350 M195 LORKU DCT EBOMO/N0448F370 DCT COQUE DCT KORUL DCT DEMOS DCT IBIDO DCT ASMOV |
| Aircraft | B738/M-SDE2E3FGHIRWXY/LB1 |
Departure
| Time | N/A |
|---|---|
| Airport | Rotterdam The Hague Airport (EHRD) |
Arrival
| Time | 2026-05-04 17:04 |
|---|---|
| Airport | Francisco de Sá Carneiro Airport (LPPR) |
| Time | Latitude | Longitude | Altitude | Speed | Heading |
|---|---|---|---|---|---|
| 2026-05-04 16:36 | 42.20967 | -8.09705 | 14043 ft | 297 kts | 182° |
| 2026-05-04 16:36 | 42.16835 | -8.09563 | 13566 ft | 299 kts | 182° |
| 2026-05-04 16:37 | 42.12653 | -8.09402 | 13034 ft | 302 kts | 182° |
| 2026-05-04 16:37 | 42.10549 | -8.09318 | 12755 ft | 303 kts | 182° |
| 2026-05-04 16:37 | 42.06386 | -8.09414 | 12204 ft | 292 kts | 195° |
| 2026-05-04 16:38 | 42.02531 | -8.10822 | 11701 ft | 285 kts | 200° |
| 2026-05-04 16:39 | 41.96871 | -8.13079 | 11105 ft | 285 kts | 200° |
| 2026-05-04 16:39 | 41.93060 | -8.14536 | 10954 ft | 285 kts | 200° |
| 2026-05-04 16:40 | 41.89203 | -8.15980 | 10436 ft | 287 kts | 199° |
| 2026-05-04 16:40 | 41.85396 | -8.17388 | 9955 ft | 280 kts | 200° |
| 2026-05-04 16:41 | 41.82290 | -8.18531 | 9490 ft | 276 kts | 199° |
| 2026-05-04 16:41 | 41.76262 | -8.20742 | 8618 ft | 265 kts | 200° |
| 2026-05-04 16:42 | 41.71549 | -8.22471 | 8160 ft | 269 kts | 199° |
| 2026-05-04 16:43 | 41.67904 | -8.23806 | 8054 ft | 268 kts | 199° |
| 2026-05-04 16:43 | 41.64366 | -8.25093 | 8046 ft | 259 kts | 200° |
| 2026-05-04 16:43 | 41.62633 | -8.25725 | 8053 ft | 259 kts | 199° |
| 2026-05-04 16:44 | 41.55576 | -8.28298 | 8039 ft | 260 kts | 200° |
| 2026-05-04 16:45 | 41.52034 | -8.29589 | 7631 ft | 269 kts | 199° |
| 2026-05-04 16:46 | 41.46655 | -8.31538 | 6884 ft | 264 kts | 200° |
| 2026-05-04 16:46 | 41.43139 | -8.32813 | 6383 ft | 259 kts | 201° |
| 2026-05-04 16:47 | 41.39682 | -8.34062 | 5865 ft | 256 kts | 201° |
| 2026-05-04 16:47 | 41.36253 | -8.35304 | 5346 ft | 255 kts | 199° |
| 2026-05-04 16:48 | 41.31349 | -8.37644 | 4580 ft | 247 kts | 214° |
| 2026-05-04 16:48 | 41.29854 | -8.38757 | 4319 ft | 246 kts | 214° |
| 2026-05-04 16:49 | 41.26911 | -8.40940 | 3846 ft | 236 kts | 213° |
| 2026-05-04 16:49 | 41.24099 | -8.42982 | 3290 ft | 225 kts | 213° |
| 2026-05-04 16:50 | 41.21465 | -8.44867 | 3007 ft | 204 kts | 213° |
| 2026-05-04 16:50 | 41.19001 | -8.46629 | 2993 ft | 202 kts | 213° |
| 2026-05-04 16:51 | 41.16531 | -8.48389 | 2991 ft | 202 kts | 213° |
| 2026-05-04 16:51 | 41.15294 | -8.49267 | 2991 ft | 201 kts | 213° |
| 2026-05-04 16:51 | 41.12827 | -8.51009 | 2982 ft | 198 kts | 214° |
| 2026-05-04 16:52 | 41.10523 | -8.52590 | 2978 ft | 181 kts | 204° |
| 2026-05-04 16:52 | 41.09278 | -8.52565 | 2987 ft | 190 kts | 164° |
| 2026-05-04 16:53 | 41.06411 | -8.50936 | 3017 ft | 241 kts | 159° |
| 2026-05-04 16:53 | 41.01745 | -8.48264 | 3012 ft | 246 kts | 159° |
| 2026-05-04 16:54 | 41.00176 | -8.47378 | 3002 ft | 244 kts | 159° |
| 2026-05-04 16:55 | 40.94064 | -8.43897 | 3015 ft | 238 kts | 160° |
| 2026-05-04 16:55 | 40.90991 | -8.44766 | 3011 ft | 244 kts | 237° |
| 2026-05-04 16:56 | 40.90905 | -8.48758 | 3022 ft | 226 kts | 302° |
| 2026-05-04 16:56 | 40.93740 | -8.53792 | 3025 ft | 231 kts | 310° |
| 2026-05-04 16:57 | 40.94760 | -8.55369 | 3017 ft | 217 kts | 309° |
| 2026-05-04 16:57 | 40.96555 | -8.58216 | 3005 ft | 190 kts | 309° |
| 2026-05-04 16:58 | 40.99242 | -8.61939 | 3013 ft | 186 kts | 339° |
| 2026-05-04 16:58 | 41.00493 | -8.62344 | 3032 ft | 188 kts | 342° |
| 2026-05-04 16:59 | 41.03027 | -8.63006 | 3015 ft | 187 kts | 347° |
| 2026-05-04 17:00 | 41.08435 | -8.64266 | 2974 ft | 195 kts | 347° |
| 2026-05-04 17:00 | 41.11982 | -8.65092 | 2502 ft | 154 kts | 345° |
| 2026-05-04 17:01 | 41.14021 | -8.65569 | 2129 ft | 151 kts | 346° |
| 2026-05-04 17:01 | 41.16013 | -8.66033 | 1741 ft | 142 kts | 345° |
| 2026-05-04 17:02 | 41.18008 | -8.66499 | 1352 ft | 145 kts | 347° |
| 2026-05-04 17:02 | 41.19924 | -8.66946 | 997 ft | 142 kts | 346° |
| 2026-05-04 17:03 | 41.20923 | -8.67179 | 770 ft | 146 kts | 348° |
| 2026-05-04 17:03 | 41.21892 | -8.67405 | 583 ft | 141 kts | 346° |
| 2026-05-04 17:03 | 41.23818 | -8.67865 | 229 ft | 136 kts | 345° |
| 2026-05-04 17:04 | 41.25097 | -8.68170 | 185 ft | 34 kts | 10° |
| 2026-05-04 17:04 | 41.25258 | -8.68013 | 181 ft | 13 kts | 170° |
| 2026-05-04 17:05 | 41.25195 | -8.68003 | 191 ft | 0 kts | 161° |
| 2026-05-04 17:05 | 41.25136 | -8.67980 | 192 ft | 10 kts | 166° |
| 2026-05-04 17:06 | 41.24907 | -8.67919 | 206 ft | 22 kts | 167° |
| 2026-05-04 17:06 | 41.24768 | -8.67832 | 210 ft | 22 kts | 163° |
| 2026-05-04 17:07 | 41.24479 | -8.67753 | 220 ft | 21 kts | 168° |
| 2026-05-04 17:07 | 41.24391 | -8.67731 | 225 ft | 17 kts | 170° |
| 2026-05-04 17:07 | 41.24265 | -8.67637 | 234 ft | 13 kts | 126° |
| 2026-05-04 17:07 | 41.24204 | -8.67573 | 237 ft | 11 kts | 172° |
| 2026-05-04 17:08 | 41.24135 | -8.67559 | 237 ft | 0 kts | 166° |
| 2026-05-04 17:10 | 41.24089 | -8.67545 | 237 ft | 10 kts | 167° |
| 2026-05-04 17:10 | 41.23745 | -8.67435 | 238 ft | 13 kts | 132° |
| 2026-05-04 17:11 | 41.23700 | -8.67353 | 241 ft | 0 kts | 125° |
| 2026-05-04 17:11 | 41.23700 | -8.67351 | 241 ft | 0 kts | 111° |
| 2026-05-04 17:11 | 41.23710 | -8.67329 | 242 ft | 4 kts | 60° |
| 2026-05-04 17:12 | 41.23727 | -8.67287 | 244 ft | 6 kts | 70° |
| 2026-05-04 17:12 | 41.23734 | -8.67263 | 244 ft | 0 kts | 68° |